Time;durP1;ratioP1;P1;durP2;ratioP2;P2;SDS_P1;SDS_P2;PMS_P1;PMS_P2;Temp;Humidity;BMP_temperature;BMP_pressure;BME280_temperature;BME280_humidity;BME280_pressure;Samples;Min_cycle;Max_cycle;Signal;HPM_P1;HPM_P2
2023/11/06 00:00:51;;;;;;;27.25;6.72;;;;;;;;;;5114466;28;20043;-74
2023/11/06 00:03:56;;;;;;;29.70;6.72;;;;;;;;;;5114446;28;20042;-74
2023/11/06 00:07:00;;;;;;;25.65;6.60;;;;;;;;;;5114230;28;20055;-74
2023/11/06 00:10:04;;;;;;;23.95;6.53;;;;;;;;;;5114176;28;20043;-74
2023/11/06 00:13:09;;;;;;;29.10;6.60;;;;;;;;;;5114281;28;20050;-75
2023/11/06 00:16:14;;;;;;;24.75;6.22;;;;;;;;;;5114175;28;20042;-74
2023/11/06 00:19:22;;;;;;;30.92;6.05;;;;;;;;;;5114480;28;20046;-73
2023/11/06 00:22:26;;;;;;;23.65;6.72;;;;;;;;;;5113953;28;20046;-74
2023/11/06 00:25:31;;;;;;;28.75;6.53;;;;;;;;;;5113873;28;20047;-74
2023/11/06 00:28:35;;;;;;;23.35;6.65;;;;;;;;;;5113605;28;20047;-74
2023/11/06 00:31:39;;;;;;;21.77;6.60;;;;;;;;;;5112716;28;20436;-74
2023/11/06 00:34:44;;;;;;;23.15;6.00;;;;;;;;;;5113139;28;20529;-75
2023/11/06 00:37:48;;;;;;;21.35;5.55;;;;;;;;;;5113562;28;20039;-75
2023/11/06 00:40:52;;;;;;;26.20;5.90;;;;;;;;;;5113908;28;20039;-74
2023/11/06 00:43:56;;;;;;;24.02;6.10;;;;;;;;;;5112624;28;20513;-74
2023/11/06 00:47:01;;;;;;;28.25;6.22;;;;;;;;;;5113431;28;20058;-75
2023/11/06 00:50:05;;;;;;;19.27;4.93;;;;;;;;;;5113510;28;20043;-75
2023/11/06 00:53:11;;;;;;;27.00;6.90;;;;;;;;;;5113227;28;20046;-74
2023/11/06 00:56:16;;;;;;;20.58;5.80;;;;;;;;;;5113123;28;20066;-75
2023/11/06 00:59:20;;;;;;;24.02;6.00;;;;;;;;;;5113293;28;20395;-74
2023/11/06 01:02:24;;;;;;;18.08;5.50;;;;;;;;;;5113040;28;20042;-74
2023/11/06 01:05:31;;;;;;;24.00;5.88;;;;;;;;;;5113119;28;20050;-74
2023/11/06 01:08:35;;;;;;;26.65;5.50;;;;;;;;;;5112194;28;20043;-73
2023/11/06 01:11:40;;;;;;;31.42;5.05;;;;;;;;;;5112389;28;20529;-74
2023/11/06 01:14:44;;;;;;;20.63;4.53;;;;;;;;;;5113039;28;20043;-76
2023/11/06 01:17:48;;;;;;;23.85;4.43;;;;;;;;;;5112925;28;20038;-74
2023/11/06 01:20:52;;;;;;;24.08;4.80;;;;;;;;;;5112442;28;20054;-75
2023/11/06 01:23:57;;;;;;;18.38;4.93;;;;;;;;;;5112760;28;20043;-74
2023/11/06 01:27:01;;;;;;;21.65;4.40;;;;;;;;;;5112432;28;20054;-74
2023/11/06 01:30:06;;;;;;;25.75;5.22;;;;;;;;;;5112341;28;20058;-74
2023/11/06 01:33:10;;;;;;;23.88;4.45;;;;;;;;;;5111791;28;20046;-75
2023/11/06 01:36:15;;;;;;;21.80;4.57;;;;;;;;;;5112288;28;20034;-74
2023/11/06 01:39:20;;;;;;;17.35;4.50;;;;;;;;;;5112226;28;20043;-76
2023/11/06 01:42:26;;;;;;;23.75;4.63;;;;;;;;;;5112118;28;20042;-74
2023/11/06 01:45:31;;;;;;;24.35;4.20;;;;;;;;;;5112188;28;20046;-74
2023/11/06 01:48:35;;;;;;;23.30;4.70;;;;;;;;;;5111605;28;20051;-74
2023/11/06 01:51:40;;;;;;;18.90;4.40;;;;;;;;;;5111608;28;20050;-74
2023/11/06 01:54:44;;;;;;;19.45;4.15;;;;;;;;;;5111650;28;20043;-73
2023/11/06 01:57:48;;;;;;;20.73;4.07;;;;;;;;;;5111258;28;20614;-75
2023/11/06 02:00:53;;;;;;;16.73;4.68;;;;;;;;;;5111472;28;20044;-74
2023/11/06 02:03:58;;;;;;;28.63;3.75;;;;;;;;;;5111441;28;20047;-74
2023/11/06 02:07:03;;;;;;;18.70;3.75;;;;;;;;;;5110640;28;20416;-74
2023/11/06 02:10:07;;;;;;;20.20;3.90;;;;;;;;;;5112378;28;20042;-74
2023/11/06 02:13:11;;;;;;;20.70;4.05;;;;;;;;;;5111107;28;20042;-73
2023/11/06 02:16:16;;;;;;;19.02;4.30;;;;;;;;;;5111873;28;20439;-74
2023/11/06 02:19:20;;;;;;;22.52;4.50;;;;;;;;;;5111761;28;20050;-74
2023/11/06 02:22:25;;;;;;;22.83;4.35;;;;;;;;;;5111904;28;20043;-75
2023/11/06 02:25:29;;;;;;;21.95;3.90;;;;;;;;;;5111842;28;20538;-75
2023/11/06 02:28:35;;;;;;;19.27;4.60;;;;;;;;;;5111877;28;20051;-74
2023/11/06 02:31:39;;;;;;;19.27;4.55;;;;;;;;;;5110512;28;20050;-74
2023/11/06 02:34:45;;;;;;;21.10;4.72;;;;;;;;;;5112020;28;20046;-74
2023/11/06 02:37:49;;;;;;;18.08;3.50;;;;;;;;;;5111517;28;20047;-74
2023/11/06 02:40:54;;;;;;;21.10;4.30;;;;;;;;;;5112116;28;20050;-74
2023/11/06 02:43:58;;;;;;;19.83;4.45;;;;;;;;;;5111543;28;20072;-74
2023/11/06 02:47:02;;;;;;;18.38;4.35;;;;;;;;;;5111027;28;20070;-75
2023/11/06 02:50:07;;;;;;;17.90;4.05;;;;;;;;;;5112078;28;20510;-74
2023/11/06 02:53:11;;;;;;;20.08;4.50;;;;;;;;;;5111799;28;20051;-75
2023/11/06 02:56:15;;;;;;;22.70;4.85;;;;;;;;;;5111033;28;20043;-74
2023/11/06 02:59:22;;;;;;;31.27;4.85;;;;;;;;;;5111603;28;20498;-74
2023/11/06 03:02:27;;;;;;;24.00;4.47;;;;;;;;;;5111618;28;20046;-74
2023/11/06 03:05:31;;;;;;;19.25;4.25;;;;;;;;;;5111431;28;20047;-74
2023/11/06 03:08:36;;;;;;;15.57;4.00;;;;;;;;;;5111668;28;20054;-75
2023/11/06 03:11:40;;;;;;;19.45;4.80;;;;;;;;;;5111705;28;20051;-74
2023/11/06 03:14:45;;;;;;;24.60;5.43;;;;;;;;;;5110923;28;20042;-73
2023/11/06 03:17:49;;;;;;;20.73;4.57;;;;;;;;;;5110442;28;20043;-74
2023/11/06 03:20:57;;;;;;;16.45;3.70;;;;;;;;;;5115543;28;20107;-74
2023/11/06 03:24:01;;;;;;;23.20;4.07;;;;;;;;;;5114340;28;20050;-74
2023/11/06 03:27:05;;;;;;;19.77;3.72;;;;;;;;;;5114986;28;20407;-74
2023/11/06 03:30:11;;;;;;;23.75;4.85;;;;;;;;;;5115164;28;20054;-74
2023/11/06 03:33:16;;;;;;;17.55;4.80;;;;;;;;;;5114725;28;20498;-75
2023/11/06 03:36:20;;;;;;;19.60;3.85;;;;;;;;;;5114097;28;20051;-74
2023/11/06 03:39:24;;;;;;;19.90;4.18;;;;;;;;;;5114883;28;20046;-74
2023/11/06 03:42:29;;;;;;;16.25;3.92;;;;;;;;;;5113926;28;20051;-74
2023/11/06 03:45:34;;;;;;;19.83;4.15;;;;;;;;;;5114655;28;20039;-74
2023/11/06 03:48:39;;;;;;;17.27;4.15;;;;;;;;;;5113491;28;20054;-74
2023/11/06 03:51:44;;;;;;;16.15;3.67;;;;;;;;;;5114787;28;20051;-74
2023/11/06 03:54:51;;;;;;;19.40;4.20;;;;;;;;;;5114726;28;20387;-74
2023/11/06 03:57:55;;;;;;;15.27;4.40;;;;;;;;;;5114659;28;20038;-74
2023/11/06 04:00:59;;;;;;;18.50;5.65;;;;;;;;;;5114459;28;20502;-74
2023/11/06 04:04:03;;;;;;;16.85;4.00;;;;;;;;;;5114292;28;20050;-74
2023/11/06 04:07:09;;;;;;;21.83;4.75;;;;;;;;;;5113937;28;20050;-73
2023/11/06 04:10:15;;;;;;;22.55;4.80;;;;;;;;;;5113924;28;20039;-74
2023/11/06 04:13:19;;;;;;;21.20;5.05;;;;;;;;;;5113996;28;20043;-73
2023/11/06 04:16:23;;;;;;;24.55;5.70;;;;;;;;;;5113980;28;20069;-73
2023/11/06 04:19:27;;;;;;;22.35;5.30;;;;;;;;;;5113910;28;20039;-75
2023/11/06 04:22:32;;;;;;;18.63;4.45;;;;;;;;;;5113837;28;20043;-75
2023/11/06 04:25:37;;;;;;;28.17;5.38;;;;;;;;;;5114559;28;20623;-75
2023/11/06 04:28:41;;;;;;;17.98;4.88;;;;;;;;;;5114159;28;20399;-74
2023/11/06 04:31:45;;;;;;;21.48;5.30;;;;;;;;;;5112764;28;20055;-74
2023/11/06 04:34:49;;;;;;;20.95;4.35;;;;;;;;;;5114046;28;20391;-74
2023/11/06 04:37:54;;;;;;;23.38;5.03;;;;;;;;;;5113861;28;20035;-75
2023/11/06 04:40:58;;;;;;;17.20;4.70;;;;;;;;;;5113811;28;20051;-75
2023/11/06 04:44:03;;;;;;;20.67;4.72;;;;;;;;;;5114014;28;20047;-74
2023/11/06 04:47:10;;;;;;;18.90;4.85;;;;;;;;;;5112712;28;20047;-74
2023/11/06 04:50:14;;;;;;;21.60;5.00;;;;;;;;;;5113526;28;20038;-74
2023/11/06 04:53:19;;;;;;;25.98;5.50;;;;;;;;;;5112884;28;20062;-74
2023/11/06 04:56:23;;;;;;;22.48;5.40;;;;;;;;;;5113557;28;20038;-74
2023/11/06 04:59:28;;;;;;;20.33;4.70;;;;;;;;;;5113011;28;20039;-74
2023/11/06 05:02:33;;;;;;;23.83;5.10;;;;;;;;;;5113463;28;20039;-75
2023/11/06 05:05:37;;;;;;;19.77;5.10;;;;;;;;;;5113169;28;20039;-74
2023/11/06 05:08:41;;;;;;;21.60;5.40;;;;;;;;;;5112681;28;20054;-74
2023/11/06 05:11:46;;;;;;;28.10;6.55;;;;;;;;;;5113113;28;20518;-74
2023/11/06 05:14:50;;;;;;;24.17;5.10;;;;;;;;;;5113034;28;20391;-73
2023/11/06 05:17:55;;;;;;;17.92;6.20;;;;;;;;;;5113083;28;20043;-75
2023/11/06 05:20:59;;;;;;;18.85;5.80;;;;;;;;;;5112867;28;20494;-73
2023/11/06 05:24:03;;;;;;;27.45;6.47;;;;;;;;;;5112769;28;20043;-76
2023/11/06 05:27:08;;;;;;;29.23;5.28;;;;;;;;;;5112541;28;20533;-74
2023/11/06 05:30:12;;;;;;;22.42;6.38;;;;;;;;;;5112673;28;20054;-74
2023/11/06 05:33:17;;;;;;;20.83;5.53;;;;;;;;;;5112891;28;20050;-73
2023/11/06 05:36:21;;;;;;;25.05;5.80;;;;;;;;;;5112862;28;20047;-74
2023/11/06 05:39:25;;;;;;;23.05;5.70;;;;;;;;;;5113028;28;20408;-74
2023/11/06 05:42:30;;;;;;;22.27;5.80;;;;;;;;;;5113351;28;20039;-74
2023/11/06 05:45:37;;;;;;;24.02;6.97;;;14.00;99.90;;;;;;5113162;28;20046;-74
2023/11/06 05:48:41;;;;;;;22.98;6.75;;;;;;;;;;5113061;28;20058;-74
2023/11/06 05:51:48;;;;;;;21.55;5.90;;;;;;;;;;5113258;28;20045;-73
2023/11/06 05:54:53;;;;;;;18.02;5.60;;;;;;;;;;5112947;28;20046;-74
2023/11/06 05:57:57;;;;;;;27.30;6.63;;;;;;;;;;5113215;28;20046;-73
2023/11/06 06:01:01;;;;;;;24.48;6.63;;;;;;;;;;5112966;28;20051;-75
2023/11/06 06:04:06;;;;;;;27.85;7.07;;;;;;;;;;5113062;28;20050;-75
2023/11/06 06:07:10;;;;;;;20.52;6.03;;;;;;;;;;5112447;28;20054;-74
2023/11/06 06:10:15;;;;;;;23.27;5.97;;;;;;;;;;5112988;28;20399;-75
2023/11/06 06:13:19;;;;;;;19.58;6.82;;;;;;;;;;5112163;28;20042;-74
2023/11/06 06:16:23;;;;;;;26.73;8.82;;;;;;;;;;5111995;28;20383;-75
2023/11/06 06:19:28;;;;;;;22.75;7.65;;;;;;;;;;5112715;28;20065;-74
2023/11/06 06:22:32;;;;;;;24.80;8.68;;;;;;;;;;5112347;28;20046;-75
2023/11/06 06:25:36;;;;;;;29.48;8.02;;;;;;;;;;5112098;28;20050;-74
2023/11/06 06:28:41;;;;;;;21.83;7.68;;;;;;;;;;5111748;28;20051;-73
2023/11/06 06:31:45;;;;;;;30.52;7.55;;;;;;;;;;5110993;28;20066;-72
2023/11/06 06:34:49;;;;;;;27.45;6.60;;;;;;;;;;5112197;28;20039;-73
2023/11/06 06:37:54;;;;;;;20.55;6.10;;;;;;;;;;5111774;28;20043;-72
2023/11/06 06:40:58;;;;;;;24.80;5.18;;;;;;;;;;5112057;28;20039;-72
2023/11/06 06:44:03;;;;;;;18.33;5.22;;;;;;;;;;5111709;28;20138;-72
2023/11/06 06:47:08;;;;;;;21.10;5.07;;;14.70;99.90;;;;;;5112410;28;20050;-78
2023/11/06 06:50:12;;;;;;;20.90;5.45;;;;;;;;;;5111804;28;20053;-76
2023/11/06 06:53:16;;;;;;;25.38;6.20;;;;;;;;;;5113028;28;20062;-75
2023/11/06 06:56:21;;;;;;;29.85;6.20;;;;;;;;;;5115908;28;20043;-74
2023/11/06 06:59:26;;;;;;;16.30;4.38;;;;;;;;;;5115934;28;20046;-73
2023/11/06 07:02:30;;;;;;;21.77;5.45;;;;;;;;;;5116000;28;20220;-72
2023/11/06 07:05:35;;;;;;;25.40;4.43;;;;;;;;;;5115918;28;20042;-73
2023/11/06 07:08:40;;;;;;;21.38;5.30;;;15.70;99.90;;;;;;5116128;28;20047;-73
2023/11/06 07:11:45;;;;;;;26.25;4.97;;;;;;;;;;5115508;28;20046;-67
2023/11/06 07:14:50;;;;;;;25.08;4.55;;;;;;;;;;5115488;28;20066;-71
2023/11/06 07:17:54;;;;;;;22.17;4.47;;;;;;;;;;5115241;28;20045;-70
2023/11/06 07:20:58;;;;;;;19.88;4.22;;;;;;;;;;5115799;28;20050;-72
2023/11/06 07:24:02;;;;;;;25.55;5.05;;;;;;;;;;5115491;28;20039;-71
2023/11/06 07:27:07;;;;;;;28.08;5.15;;;;;;;;;;5114991;28;20042;-72
2023/11/06 07:30:12;;;;;;;19.40;3.60;;;;;;;;;;5113704;28;20047;-72
2023/11/06 07:33:16;;;;;;;25.63;4.93;;;;;;;;;;5114730;28;20142;-71
2023/11/06 07:36:20;;;;;;;23.85;4.20;;;;;;;;;;5115132;28;20491;-73
2023/11/06 07:39:25;;;;;;;27.13;4.57;;;;;;;;;;5115325;28;20046;-70
2023/11/06 07:42:29;;;;;;;21.60;4.60;;;;;;;;;;5113991;28;20073;-71
2023/11/06 07:45:34;;;;;;;16.08;3.75;;;;;;;;;;5113365;28;20038;-73
2023/11/06 07:48:38;;;;;;;21.10;4.22;;;;;;;;;;5111578;28;20050;-70
2023/11/06 07:51:43;;;;;;;29.23;4.38;;;;;;;;;;5112633;28;20039;-71
2023/11/06 07:54:47;;;;;;;19.40;3.78;;;;;;;;;;5112305;28;20050;-72
2023/11/06 07:57:52;;;;;;;24.65;5.75;;;;;;;;;;5113016;28;20034;-72
2023/11/06 08:00:56;;;;;;;12.63;4.07;;;;;;;;;;5114417;28;20426;-71
2023/11/06 08:04:00;;;;;;;17.25;3.90;;;;;;;;;;5113714;28;20505;-70
2023/11/06 08:07:05;;;;;;;17.20;4.07;;;;;;;;;;5113434;28;20050;-70
2023/11/06 08:10:17;;;;;;;18.10;5.00;;;18.00;98.80;;;;;;5113724;28;20035;-73
2023/11/06 08:13:22;;;;;;;17.30;4.25;;;;;;;;;;5113624;28;20047;-73
2023/11/06 08:16:31;;;;;;;17.02;4.47;;;18.60;99.70;;;;;;5114614;28;20518;-69
2023/11/06 08:19:38;;;;;;;14.25;4.00;;;;;;;;;;5113648;28;20490;-69
2023/11/06 08:22:42;;;;;;;17.92;4.38;;;;;;;;;;5113425;28;20042;-68
2023/11/06 08:25:47;;;;;;;18.10;5.40;;;;;;;;;;5113446;28;20051;-70
2023/11/06 08:28:51;;;;;;;13.82;4.43;;;;;;;;;;5113468;28;20050;-70
2023/11/06 08:31:59;;;;;;;14.43;4.50;;;19.60;98.60;;;;;;5113415;28;20502;-70
2023/11/06 08:35:04;;;;;;;21.70;4.90;;;;;;;;;;5113197;28;20047;-69
2023/11/06 08:38:09;;;;;;;23.17;4.65;;;;;;;;;;5112904;28;20055;-70
2023/11/06 08:41:13;;;;;;;26.60;5.30;;;;;;;;;;5113473;28;20042;-70
2023/11/06 08:44:18;;;;;;;24.27;5.28;;;;;;;;;;5113281;28;20054;-67
2023/11/06 08:47:22;;;;;;;22.70;6.20;;;;;;;;;;5113019;28;20043;-68
2023/11/06 08:50:29;;;;;;;26.77;5.70;;;19.50;99.50;;;;;;5111701;28;20526;-70
2023/11/06 08:53:33;;;;;;;21.67;5.43;;;;;;;;;;5112899;28;20399;-69
2023/11/06 08:56:37;;;;;;;17.02;4.68;;;;;;;;;;5113103;28;20050;-69
2023/11/06 08:59:42;;;;;;;18.75;4.57;;;;;;;;;;5112537;28;20486;-69
2023/11/06 09:02:47;;;;;;;20.10;4.97;;;19.50;99.90;;;;;;5112907;28;20042;-68
2023/11/06 09:05:52;;;;;;;15.18;4.40;;;;;;;;;;5112883;28;20356;-69
2023/11/06 09:08:56;;;;;;;14.65;4.57;;;;;;;;;;5112766;28;20054;-69
2023/11/06 09:12:00;;;;;;;23.20;4.68;;;;;;;;;;5113046;28;20054;-68
2023/11/06 09:15:05;;;;;;;12.82;3.42;;;20.60;97.60;;;;;;5112943;28;20042;-69
2023/11/06 09:18:09;;;;;;;25.00;4.18;;;18.40;96.00;;;;;;5111982;28;20498;-68
2023/11/06 09:21:13;;;;;;;18.92;3.42;;;20.90;94.80;;;;;;5112457;28;20074;-68
2023/11/06 09:24:18;;;;;;;22.55;4.57;;;;;;;;;;5111994;28;20034;-68
2023/11/06 09:27:23;;;;;;;14.20;3.67;;;20.60;94.40;;;;;;5112028;28;20432;-68
2023/11/06 09:30:27;;;;;;;14.50;3.22;;;20.80;94.60;;;;;;5111733;28;20071;-68
2023/11/06 09:33:31;;;;;;;19.75;4.20;;;21.00;94.00;;;;;;5112093;28;20046;-68
2023/11/06 09:36:35;;;;;;;27.27;3.65;;;20.60;94.20;;;;;;5111952;28;20494;-68
2023/11/06 09:39:43;;;;;;;22.67;3.65;;;;;;;;;;5111961;28;20077;-68
2023/11/06 09:42:48;;;;;;;20.00;3.85;;;20.10;94.50;;;;;;5112365;28;20224;-69
2023/11/06 09:45:52;;;;;;;21.15;4.30;;;;;;;;;;5111958;28;20046;-68
2023/11/06 09:49:05;;;;;;;14.38;3.17;;;19.80;94.80;;;;;;5111007;28;20058;-68
2023/11/06 09:52:10;;;;;;;28.45;5.05;;;19.70;94.90;;;;;;5111557;28;20399;-69
2023/11/06 09:55:19;;;;;;;22.85;4.07;;;19.70;95.30;;;;;;5111871;28;20038;-68
2023/11/06 09:58:24;;;;;;;21.63;4.53;;;;;;;;;;5111722;28;20034;-69
2023/11/06 10:01:30;;;;;;;17.55;4.32;;;;;;;;;;5111948;28;20047;-69
2023/11/06 10:04:36;;;;;;;13.60;3.03;;;20.70;95.10;;;;;;5111952;28;20043;-70
2023/11/06 10:07:52;;;;;;;23.75;3.78;;;22.60;94.40;;;;;;5111800;28;20074;-68
2023/11/06 10:10:59;;;;;;;16.10;3.53;;;21.40;93.40;;;;;;5111500;28;20046;-68
2023/11/06 10:14:03;;;;;;;16.20;3.70;;;21.60;93.50;;;;;;5111028;28;20047;-69
2023/11/06 10:17:10;;;;;;;20.48;3.67;;;21.60;93.30;;;;;;5111474;28;20498;-71
2023/11/06 10:20:14;;;;;;;13.60;3.17;;;22.10;92.70;;;;;;5111851;28;20362;-71
2023/11/06 10:23:34;;;;;;;18.77;3.35;;;22.20;92.30;;;;;;5110923;28;20407;-71
2023/11/06 10:26:39;;;;;;;22.17;4.28;;;22.50;92.20;;;;;;5111500;28;20062;-69
2023/11/06 10:30:04;;;;;;;11.43;3.03;;;22.50;92.40;;;;;;5110509;28;20059;-68
2023/11/06 10:33:15;;;;;;;15.63;3.55;;;22.90;92.20;;;;;;5111715;28;20051;-70
2023/11/06 10:36:19;;;;;;;12.15;2.97;;;22.90;91.80;;;;;;5111437;28;20054;-68
2023/11/06 10:39:24;;;;;;;10.85;3.83;;;23.00;91.70;;;;;;5111511;28;20043;-71
2023/11/06 10:42:28;;;;;;;11.77;3.50;;;23.20;91.40;;;;;;5112067;28;20050;-71
2023/11/06 10:45:33;;;;;;;12.88;3.05;;;23.20;91.70;;;;;;5111634;28;20047;-70
2023/11/06 10:48:47;;;;;;;13.30;2.33;;;22.70;90.20;;;;;;5111530;28;20118;-68
2023/11/06 10:51:53;;;;;;;11.13;2.20;;;22.20;90.10;;;;;;5111541;28;20035;-71
2023/11/06 10:55:02;;;;;;;7.30;1.70;;;21.90;90.30;;;;;;5111671;28;20502;-70
2023/11/06 10:58:08;;;;;;;8.38;2.15;;;22.00;90.60;;;;;;5111783;28;20051;-71
2023/11/06 11:01:13;;;;;;;6.47;1.30;;;21.90;90.10;;;;;;5111551;28;20395;-71
2023/11/06 11:04:17;;;;;;;8.88;1.95;;;21.80;89.50;;;;;;5110793;28;20042;-71
2023/11/06 11:07:21;;;;;;;16.75;1.95;;;21.80;89.40;;;;;;5110958;28;20054;-71
2023/11/06 11:10:27;;;;;;;8.45;1.90;;;21.90;87.90;;;;;;5111383;28;20051;-71
2023/11/06 11:13:31;;;;;;;6.45;2.28;;;21.90;87.40;;;;;;5111120;28;20047;-70
2023/11/06 11:16:45;;;;;;;6.65;2.00;;;21.90;87.40;;;;;;5111629;28;20446;-72
2023/11/06 11:19:56;;;;;;;8.63;1.40;;;21.90;87.90;;;;;;5111188;28;20039;-72
2023/11/06 11:23:08;;;;;;;4.68;1.40;;;21.90;85.00;;;;;;5111421;28;20070;-71
2023/11/06 11:26:12;;;;;;;;;;;20.50;84.90;;;;;;5111119;28;20070;-71
2023/11/06 11:29:16;;;;;;;8.35;1.65;;;21.90;84.90;;;;;;5111632;28;19923;-71
2023/11/06 11:32:22;;;;;;;9.27;2.03;;;21.80;85.00;;;;;;5110505;28;20047;-72
2023/11/06 11:35:26;;;;;;;8.20;1.67;;;21.80;85.70;;;;;;5111444;28;20046;-73
2023/11/06 11:38:33;;;;;;;6.43;1.42;;;22.20;85.50;;;;;;5111181;28;20050;-72
2023/11/06 11:41:38;;;;;;;4.95;1.48;;;21.80;85.80;;;;;;5114692;28;20039;-71
2023/11/06 11:44:59;;;;;;;7.82;1.63;;;20.20;84.90;;;;;;5114748;28;20483;-73
2023/11/06 11:48:03;;;;;;;8.80;1.70;;;21.70;86.20;;;;;;5114584;28;20046;-72
2023/11/06 11:51:07;;;;;;;8.23;1.73;;;21.70;86.80;;;;;;5113468;28;20058;-71
2023/11/06 11:54:29;;;;;;;9.32;1.63;;;21.70;86.90;;;;;;5114340;28;20042;-72
2023/11/06 11:57:33;;;;;;;11.27;2.25;;;21.80;86.70;;;;;;5114371;28;20042;-72
2023/11/06 12:00:42;;;;;;;5.00;1.60;;;21.80;87.20;;;;;;5114574;28;20050;-73
2023/11/06 12:03:46;;;;;;;8.30;1.88;;;21.80;86.80;;;;;;5115103;28;20050;-71
2023/11/06 12:07:01;;;;;;;9.32;1.98;;;21.80;85.90;;;;;;5113818;28;20062;-71
2023/11/06 12:10:07;;;;;;;7.05;1.60;;;21.80;86.70;;;;;;5114343;28;20055;-73
2023/11/06 12:13:14;;;;;;;9.93;2.15;;;21.60;87.00;;;;;;5113593;28;20038;-71
2023/11/06 12:16:19;;;;;;;7.13;1.63;;;21.60;87.70;;;;;;5114692;28;20058;-71
2023/11/06 12:19:23;;;;;;;3.92;1.20;;;22.20;87.60;;;;;;5114348;28;20066;-72
2023/11/06 12:22:28;;;;;;;10.55;2.78;;;21.50;86.70;;;;;;5114381;28;20062;-76
2023/11/06 12:25:38;;;;;;;9.60;1.90;;;21.50;86.30;;;;;;5114526;28;20047;-72
2023/11/06 12:28:50;;;;;;;8.93;2.28;;;21.50;86.10;;;;;;5114209;28;20055;-71
2023/11/06 12:31:57;;;;;;;7.53;2.13;;;21.40;86.40;;;;;;5113732;28;20046;-72
2023/11/06 12:35:07;;;;;;;4.50;1.42;;;21.40;86.70;;;;;;5114074;28;20043;-72
2023/11/06 12:38:11;;;;;;;5.85;1.70;;;21.40;87.30;;;;;;5113084;28;20054;-72
2023/11/06 12:41:30;;;;;;;7.00;1.75;;;21.00;86.90;;;;;;5111401;28;20054;-73
2023/11/06 12:44:38;;;;;;;10.93;2.63;;;21.50;87.70;;;;;;5113175;28;20039;-72
2023/11/06 12:47:44;;;;;;;4.28;1.40;;;21.40;87.30;;;;;;5113758;28;20050;-70
2023/11/06 12:51:09;;;;;;;8.18;1.95;;;21.40;87.70;;;;;;5113051;28;20047;-73
2023/11/06 12:54:17;;;;;;;5.35;1.60;;;;;;;;;;5112647;28;20043;-74
2023/11/06 12:57:20;;;;;;;8.15;1.90;;;21.20;87.90;;;;;;5112709;28;20032;-71
2023/11/06 13:00:28;;;;;;;5.57;1.23;;;21.40;87.30;;;;;;5112369;28;20050;-70
2023/11/06 13:03:34;;;;;;;8.25;1.90;;;21.40;86.90;;;;;;5113575;28;20046;-70
2023/11/06 13:06:38;;;;;;;9.27;1.55;;;21.30;87.30;;;;;;5113147;28;20051;-69
2023/11/06 13:09:42;;;;;;;3.83;1.17;;;21.30;87.90;;;;;;5112512;28;20059;-71
2023/11/06 13:12:47;;;;;;;7.15;1.60;;;21.30;88.30;;;;;;5111348;28;20044;-69
2023/11/06 13:15:52;;;;;;;13.48;2.53;;;21.20;89.00;;;;;;5111033;28;20038;-69
2023/11/06 13:18:56;;;;;;;8.95;2.03;;;20.80;89.00;;;;;;5111598;28;20038;-70
2023/11/06 13:22:00;;;;;;;12.45;2.00;;;21.10;88.40;;;;;;5112071;28;20497;-70
2023/11/06 13:25:05;;;;;;;8.60;2.00;;;21.10;88.30;;;;;;5112399;28;20046;-70
2023/11/06 13:28:10;;;;;;;11.52;2.08;;;21.00;88.70;;;;;;5112583;28;20542;-69
2023/11/06 13:31:14;;;;;;;10.35;1.90;;;21.00;87.80;;;;;;5111595;28;20067;-68
2023/11/06 13:34:18;;;;;;;7.57;1.95;;;21.00;88.10;;;;;;5113421;28;20051;-71
2023/11/06 13:37:22;;;;;;;5.90;1.90;;;21.50;89.10;;;;;;5112488;28;20070;-69
2023/11/06 13:40:30;;;;;;;8.40;2.00;;;20.80;87.90;;;;;;5113139;28;20051;-71
2023/11/06 13:43:36;;;;;;;8.80;2.00;;;20.90;88.50;;;;;;5112281;28;20114;-71
2023/11/06 13:46:41;;;;;;;8.55;1.88;;;21.00;89.00;;;;;;5112657;28;20337;-71
2023/11/06 13:49:49;;;;;;;10.07;2.45;;;20.90;89.20;;;;;;5112796;28;20054;-71
2023/11/06 13:52:59;;;;;;;13.48;2.08;;;21.10;89.00;;;;;;5112361;28;20038;-69
2023/11/06 13:56:26;;;;;;;6.60;1.60;;;20.90;89.40;;;;;;5112527;28;20043;-71
2023/11/06 13:59:30;;;;;;;6.63;1.27;;;20.90;89.50;;;;;;5112046;28;20051;-71
2023/11/06 14:02:35;;;;;;;7.63;1.83;;;20.90;90.00;;;;;;5112236;28;20644;-70
2023/11/06 14:05:45;;;;;;;5.47;1.33;;;20.80;89.90;;;;;;5112039;28;20046;-71
2023/11/06 14:08:54;;;;;;;8.10;1.80;;;20.80;90.10;;;;;;5112093;28;20054;-70
2023/11/06 14:11:58;;;;;;;11.25;1.95;;;20.80;90.40;;;;;;5112241;28;20046;-71
2023/11/06 14:15:04;;;;;;;9.77;2.70;;;20.70;90.40;;;;;;5112073;28;20055;-69
2023/11/06 14:18:08;;;;;;;11.60;2.33;;;20.70;90.60;;;;;;5111910;28;20038;-70
2023/11/06 14:21:12;;;;;;;8.45;1.90;;;20.70;90.50;;;;;;5111873;28;20050;-70
2023/11/06 14:24:19;;;;;;;9.73;2.53;;;20.90;90.50;;;;;;5112223;28;20039;-69
2023/11/06 14:27:23;;;;;;;10.60;2.65;;;20.40;90.60;;;;;;5112117;28;20502;-70
2023/11/06 14:30:28;;;;;;;9.48;1.88;;;20.40;90.90;;;;;;5112224;28;20506;-70
2023/11/06 14:33:32;;;;;;;14.50;2.95;;;20.40;91.00;;;;;;5112415;28;20395;-69
2023/11/06 14:36:36;;;;;;;9.90;2.42;;;;;;;;;;5110924;28;20043;-69
2023/11/06 14:39:40;;;;;;;7.47;2.03;;;20.30;91.40;;;;;;5111381;28;20036;-70
2023/11/06 14:42:48;;;;;;;16.27;2.75;;;18.80;90.80;;;;;;5111696;28;20069;-70
2023/11/06 14:45:52;;;;;;;7.75;2.17;;;20.70;91.40;;;;;;5110244;28;20047;-70
2023/11/06 14:48:56;;;;;;;15.88;2.30;;;21.80;91.80;;;;;;5111684;28;20045;-70
2023/11/06 14:52:00;;;;;;;14.82;3.85;;;20.20;91.50;;;;;;5111394;28;20080;-69
2023/11/06 14:55:09;;;;;;;8.10;2.08;;;20.20;91.60;;;;;;5111351;28;20035;-70
2023/11/06 14:58:13;;;;;;;10.82;2.92;;;20.20;91.70;;;;;;5111168;28;20046;-69
2023/11/06 15:01:21;;;;;;;10.40;2.78;;;20.20;91.90;;;;;;5111093;28;20055;-69
2023/11/06 15:04:25;;;;;;;13.32;2.58;;;20.10;92.00;;;;;;5110940;28;20050;-70
2023/11/06 15:07:31;;;;;;;16.33;2.65;;;20.00;92.00;;;;;;5110943;28;20050;-68
2023/11/06 15:10:36;;;;;;;16.40;3.15;;;20.00;92.20;;;;;;5111018;28;20055;-68
2023/11/06 15:13:40;;;;;;;27.35;3.90;;;19.90;92.30;;;;;;5110760;28;20054;-70
2023/11/06 15:16:43;;;;;;;13.60;4.57;;;21.00;92.60;;;;;;5114461;28;20043;-69
2023/11/06 15:19:47;;;;;;;31.98;5.57;;;20.20;92.60;;;;;;5114511;28;20510;-69
2023/11/06 15:22:55;;;;;;;32.58;5.25;;;18.00;92.50;;;;;;5114757;28;20050;-69
2023/11/06 15:25:59;;;;;;;24.63;4.82;;;;;;;;;;5114876;28;20050;-69
2023/11/06 15:29:03;;;;;;;21.23;3.47;;;;;;;;;;5114515;28;20399;-69
2023/11/06 15:32:08;;;;;;;30.48;4.75;;;;;;;;;;5073696;28;20051;-70
2023/11/06 15:35:13;;;;;;;22.25;3.72;;;19.70;93.40;;;;;;5073986;28;20047;-69
2023/11/06 15:38:18;;;;;;;23.55;3.92;;;;;;;;;;5074159;28;20067;-69
2023/11/06 15:41:22;;;;;;;22.08;4.70;;;;;;;;;;5073929;28;20051;-69
2023/11/06 15:44:28;;;;;;;30.50;4.90;;;;;;;;;;5073834;28;20048;-68
2023/11/06 15:47:32;;;;;;;22.85;4.65;;;;;;;;;;5073610;28;20400;-69
2023/11/06 15:50:40;;;;;;;34.22;4.47;;;;;;;;;;5073637;28;20123;-68
2023/11/06 15:53:45;;;;;;;30.27;4.82;;;;;;;;;;5073841;28;20051;-70
2023/11/06 15:56:52;;;;;;;45.20;6.63;;;;;;;;;;5073124;28;20384;-70
2023/11/06 15:59:57;;;;;;;23.75;4.60;;;;;;;;;;5073572;28;20040;-68
2023/11/06 16:03:02;;;;;;;29.55;5.50;;;;;;;;;;5071902;28;20043;-69
2023/11/06 16:06:09;;;;;;;32.38;5.68;;;;;;;;;;5073282;28;20035;-69
2023/11/06 16:09:16;;;;;;;38.22;5.80;;;;;;;;;;5073116;28;20051;-71
2023/11/06 16:12:20;;;;;;;40.70;7.57;;;;;;;;;;5073179;28;20051;-70
2023/11/06 16:15:28;;;;;;;45.28;9.07;;;;;;;;;;5072294;28;20039;-69
2023/11/06 16:18:32;;;;;;;49.65;8.60;;;;;;;;;;5073116;28;20047;-69
2023/11/06 16:21:37;;;;;;;28.88;6.40;;;;;;;;;;5072950;28;20047;-69
2023/11/06 16:24:41;;;;;;;34.83;5.80;;;;;;;;;;5072934;28;20397;-69
2023/11/06 16:27:46;;;;;;;34.67;5.85;;;;;;;;;;5070816;28;20051;-69
2023/11/06 16:30:50;;;;;;;20.15;5.45;;;;;;;;;;5095826;28;20055;-70
2023/11/06 16:33:57;;;;;;;31.90;6.45;;;;;;;;;;5112931;28;20047;-70
2023/11/06 16:37:02;;;;;;;25.40;4.10;;;;;;;;;;5110431;28;20047;-69
2023/11/06 16:40:10;;;;;;;21.77;5.05;;;18.80;96.30;;;;;;5111272;28;20043;-69
2023/11/06 16:43:15;;;;;;;27.95;4.20;;;;;;;;;;5111347;28;20051;-69
2023/11/06 16:46:20;;;;;;;22.58;4.43;;;;;;;;;;5111196;28;20046;-69
2023/11/06 16:49:24;;;;;;;32.72;4.72;;;;;;;;;;5111736;28;20062;-69
2023/11/06 16:52:28;;;;;;;26.30;4.88;;;;;;;;;;5112888;28;20042;-69
2023/11/06 16:55:33;;;;;;;26.00;5.03;;;;;;;;;;5112771;28;20047;-69
2023/11/06 16:58:37;;;;;;;24.70;5.82;;;;;;;;;;5113112;28;20046;-68
2023/11/06 17:01:42;;;;;;;23.45;4.85;;;;;;;;;;5112542;28;20034;-68
2023/11/06 17:04:48;;;;;;;26.10;5.38;;;;;;;;;;5112494;28;20051;-68
2023/11/06 17:07:52;;;;;;;27.80;5.60;;;;;;;;;;5112385;28;20035;-68
2023/11/06 17:10:59;;;;;;;32.75;6.78;;;;;;;;;;5111827;28;20050;-69
2023/11/06 17:14:04;;;;;;;29.67;7.30;;;;;;;;;;5112510;28;20395;-68
2023/11/06 17:17:08;;;;;;;40.47;7.07;;;;;;;;;;5112571;28;20102;-69
2023/11/06 17:20:13;;;;;;;36.67;5.97;;;;;;;;;;5111739;28;20042;-68